Stockton Metropolitan Airport
KSCK : now visible

Airfield :











YOU CAN JOIN US ON...

 
LOGIN :

Register | Disclaimer

   EN    FR    IT 

 









Legend :    VFR   Marginal VFR   IFR   Intensive IFR   Very Intensive IFR
Visi :
Ceiling :
>= 8 km
>= 3000ft
5 to 8 km
1000 to 3000 ft
1500m to 5 km
500 to 1000 ft
800 to 1500m
200 to 500 ft
< 800m
< 200 ft
Symbols :   Thunderstorms  Fog  Heavy snow  Heavy precipitations  Wind > 20 kt






- Airport Elevation : 33 ft


KSCK - Stockton Metropolitan

CURRENT METAR :
  • 171655Z 00000KT 1/2SM R29R/4500VP6000FT FG OVC002 06/04 A3032 RMK AO2 SLP267 T00610044

EXPIRED METARs :
  • 171555Z 14005KT 3/4SM R29R/P6000FT BR OVC003 06/05 A3031 RMK AO2 SLP264 T00560050
  • 171540Z 15006KT 3/4SM R29R/P6000FT BR OVC003 06/04 A3031 RMK AO2 T00560044
  • 171455Z 17006KT 5SM BR OVC004 06/05 A3029 RMK AO2 SLP257 T00610050 53022

TAF KSCK
Valid from the 17 at 16:00 until the 18 at 12:00 UTC


171621Z 1716/1812 14005KT 3/4SM BR OVC003
FM171800 14005KT 4SM BR OVC004
FM172100 15005KT 6SM BR SCT007



MET'MAP, your aeronautical weather chart ! - Copyright ORBIFLY December 2007 - Disclaimer

ORBIFLY MET'MAP TEAM :

Programming & Development : Alexandra Zaïnal
Concept & original design : Baudouin d'Aumeries
Assistance for programming : Marc-Olivier Méhu
Technical & hardware support : Manuel Goepfert

Contact : metmap@orbifly.com




SOURCES & CREDITS :

   NOAA       Earth
Advisory